Time;durP1;ratioP1;P1;durP2;ratioP2;P2;SDS_P1;SDS_P2;PMS_P1;PMS_P2;Temp;Humidity;BMP_temperature;BMP_pressure;BME280_temperature;BME280_humidity;BME280_pressure;Samples;Min_cycle;Max_cycle;Signal;HPM_P1;HPM_P2
2021/12/19 00:09:30;;;;;;;63.70;36.72;;;;;;;;;;5008283;28;20071;-65
2021/12/19 00:11:57;;;;;;;61.40;37.07;;;;;;;;;;5008850;28;20030;-65
2021/12/19 00:14:23;;;;;;;66.53;38.40;;;;;;;;;;5005111;28;20033;-65
2021/12/19 00:16:54;;;;;;;56.70;35.23;;;;;;;;;;5009349;28;20180;-65
2021/12/19 00:19:20;;;;;;;56.33;34.30;;;;;;;;;;5009067;28;20151;-64
2021/12/19 00:21:46;;;;;;;54.53;33.37;;;;;;;;;;5009098;28;20034;-64
2021/12/19 00:24:13;;;;;;;50.90;33.57;;;;;;;;;;5005551;28;20157;-64
2021/12/19 00:26:39;;;;;;;50.30;32.50;;;;;;;;;;5009358;28;20033;-64
2021/12/19 00:29:05;;;;;;;56.37;32.57;;;;;;;;;;5009764;28;20026;-65
2021/12/19 00:31:32;;;;;;;55.30;33.73;;;;;;;;;;5008475;28;20057;-64
2021/12/19 00:33:58;;;;;;;57.17;34.03;;;;;;;;;;5006301;28;20061;-65
2021/12/19 00:36:25;;;;;;;53.63;32.93;;;;;;;;;;5008786;28;20038;-65
2021/12/19 00:38:51;;;;;;;50.93;31.47;;;;;;;;;;5007150;28;20423;-65
2021/12/19 00:41:17;;;;;;;53.10;33.00;;;;;;;;;;5008071;28;20029;-65
2021/12/19 00:43:54;;;;;;;53.10;32.93;;;;;;;;;;5007130;28;20050;-64
2021/12/19 00:46:22;;;;;;;46.57;30.43;;;;;;;;;;5008242;28;20037;-65
2021/12/19 00:48:48;;;;;;;49.53;31.83;;;;;;;;;;5004186;28;20050;-64
2021/12/19 00:57:21;;;;;;;51.83;32.97;;;;;;;;;;5005281;28;20044;-65
2021/12/19 00:59:47;;;;;;;47.87;31.23;;;;;;;;;;5009239;28;20113;-64
2021/12/19 01:02:13;;;;;;;49.63;31.77;;;;;;;;;;5009696;28;20029;-65
2021/12/19 01:04:39;;;;;;;52.43;32.73;;;;;;;;;;5008008;28;20463;-65
2021/12/19 01:07:05;;;;;;;52.70;33.07;;;;;;;;;;5006308;28;20495;-64
2021/12/19 01:09:31;;;;;;;47.47;29.97;;;;;;;;;;5001661;28;20073;-65
2021/12/19 01:11:58;;;;;;;55.43;31.33;;;;;;;;;;5005928;28;20483;-64
2021/12/19 01:14:24;;;;;;;50.63;32.17;;;;;;;;;;5005475;28;20037;-65
2021/12/19 01:16:50;;;;;;;49.93;31.73;;;;;;;;;;5007338;28;20031;-65
2021/12/19 01:19:28;;;;;;;48.97;31.50;;;;;;;;;;5006505;28;20022;-65
2021/12/19 01:21:54;;;;;;;48.43;31.90;;;;;;;;;;5010708;28;20505;-65
2021/12/19 01:24:20;;;;;;;52.80;32.27;;;;;;;;;;5012778;28;20022;-65
2021/12/19 01:26:46;;;;;;;50.40;31.97;;;;;;;;;;5006752;28;20038;-65
2021/12/19 01:29:13;;;;;;;49.20;31.93;;;;;;;;;;5005215;28;20076;-65
2021/12/19 01:31:39;;;;;;;49.10;31.87;;;;;;;;;;5007828;28;20030;-65
2021/12/19 01:34:05;;;;;;;50.30;30.13;;;;;;;;;;5003043;28;20081;-65
2021/12/19 01:36:31;;;;;;;53.77;31.73;;;;;;;;;;5013067;28;20544;-65
2021/12/19 01:38:57;;;;;;;47.43;30.17;;;;;;;;;;5011967;28;20395;-65
2021/12/19 01:41:23;;;;;;;47.50;29.73;;;;;;;;;;4996412;28;20049;-65
2021/12/19 01:43:50;;;;;;;44.53;30.17;;;;;;;;;;5006716;28;20033;-65
2021/12/19 01:46:16;;;;;;;46.20;31.13;;;;;;;;;;5004796;28;20030;-64
2021/12/19 01:48:42;;;;;;;42.90;30.03;;;;;;;;;;5008377;28;20152;-65
2021/12/19 01:51:08;;;;;;;46.30;29.40;;;;;;;;;;5009480;28;20116;-65
2021/12/19 01:53:34;;;;;;;44.00;29.67;;;;;;;;;;5007703;28;20087;-64
2021/12/19 01:59:04;;;;;;;46.97;29.60;;;;;;;;;;5001641;28;20466;-65
2021/12/19 02:01:30;;;;;;;41.40;28.77;;;;;;;;;;5008532;28;20034;-64
2021/12/19 02:03:56;;;;;;;48.83;31.57;;;;;;;;;;5006397;28;20034;-65
2021/12/19 02:06:22;;;;;;;45.57;28.70;;;;;;;;;;5005759;28;20042;-64
2021/12/19 02:08:50;;;;;;;48.07;31.70;;;;;;;;;;5006893;28;20103;-64
2021/12/19 02:11:16;;;;;;;42.97;29.60;;;;;;;;;;5001756;28;20487;-64
2021/12/19 02:13:42;;;;;;;42.23;29.67;;;;;;;;;;5007212;28;20109;-64
2021/12/19 02:16:10;;;;;;;50.03;31.70;;;;;;;;;;5006225;28;20030;-64
2021/12/19 02:18:37;;;;;;;50.07;31.47;;;;;;;;;;5011251;28;20494;-65
2021/12/19 02:21:03;;;;;;;49.97;30.13;;;;;;;;;;5002263;28;20034;-64
2021/12/19 02:23:29;;;;;;;48.23;30.77;;;;;;;;;;4995894;28;20033;-64
2021/12/19 02:25:56;;;;;;;46.47;30.60;;;;;;;;;;5008544;28;20033;-64
2021/12/19 02:28:22;;;;;;;49.90;31.87;;;;;;;;;;5006051;28;20021;-65
2021/12/19 02:30:49;;;;;;;49.37;32.77;;;;;;;;;;5004032;28;20032;-64
2021/12/19 02:33:18;;;;;;;44.27;30.40;;;;;;;;;;5002825;28;20027;-65
2021/12/19 02:35:51;;;;;;;44.33;29.83;;;;;;;;;;5011761;28;20026;-65
2021/12/19 02:39:11;;;;;;;46.90;32.73;;;;;;;;;;5005716;28;20022;-65
2021/12/19 02:49:25;;;;;;;52.75;32.95;;;;;;;;;;5005015;28;20064;-65
2021/12/19 02:51:52;;;;;;;52.77;33.80;;;;;;;;;;5007627;28;20026;-64
2021/12/19 02:54:18;;;;;;;60.53;36.80;;;;;;;;;;5006000;28;20783;-64
2021/12/19 02:56:44;;;;;;;54.93;36.37;;;;;;;;;;5010967;28;20041;-65
2021/12/19 02:59:10;;;;;;;63.00;39.43;;;;;;;;;;5003725;28;20423;-64
2021/12/19 03:01:37;;;;;;;63.40;37.63;;;;;;;;;;5006151;28;20033;-64
2021/12/19 03:04:03;;;;;;;63.13;38.67;;;;;;;;;;5008195;28;20072;-64
2021/12/19 03:06:29;;;;;;;63.27;37.90;;;;;;;;;;5001238;28;20439;-65
2021/12/19 03:08:58;;;;;;;60.17;38.77;;;;;;;;;;5005440;28;20115;-65
2021/12/19 03:19:30;;;;;;;60.83;38.80;;;;;;;;;;5003017;28;20033;-64
2021/12/19 03:21:56;;;;;;;59.23;38.77;;;;;;;;;;5004059;28;20050;-65
2021/12/19 03:24:22;;;;;;;61.20;37.70;;;;;;;;;;5006777;28;20026;-64
2021/12/19 03:26:48;;;;;;;58.80;38.13;;;;;;;;;;5011581;28;20505;-64
2021/12/19 03:29:14;;;;;;;63.20;40.03;;;;;;;;;;5002628;28;20026;-64
2021/12/19 03:31:40;;;;;;;63.03;41.17;;;;;;;;;;5007636;28;20044;-64
2021/12/19 03:34:06;;;;;;;79.87;39.17;;;;;;;;;;5009170;28;20072;-64
2021/12/19 03:36:32;;;;;;;62.93;38.70;;;;;;;;;;5012945;28;20116;-64
2021/12/19 03:39:01;;;;;;;63.43;38.57;;;;;;;;;;5005665;28;20536;-64
2021/12/19 03:41:34;;;;;;;59.73;36.10;;;;;;;;;;5011151;28;20064;-65
2021/12/19 03:44:04;;;;;;;69.10;38.00;;;;;;;;;;5011246;28;20026;-64
2021/12/19 03:46:30;;;;;;;66.83;39.27;;;;;;;;;;5011707;28;20132;-65
2021/12/19 03:48:56;;;;;;;62.43;36.63;;;;;;;;;;5010928;28;20052;-65
2021/12/19 03:51:23;;;;;;;63.67;38.90;;;;;;;;;;5006290;28;20030;-65
2021/12/19 03:53:49;;;;;;;78.50;41.07;;;;;;;;;;5016705;28;20018;-64
2021/12/19 03:56:15;;;;;;;68.37;38.13;;;;;;;;;;5012217;28;20037;-65
2021/12/19 03:58:41;;;;;;;60.67;39.20;;;;;;;;;;5010691;28;20025;-64
2021/12/19 04:01:09;;;;;;;61.27;36.87;;;;;;;;;;5008126;28;20036;-64
2021/12/19 04:03:36;;;;;;;68.57;38.20;;;;;;;;;;5007967;28;20033;-64
2021/12/19 04:06:02;;;;;;;71.03;39.17;;;;;;;;;;5010991;28;20062;-64
2021/12/19 04:08:28;;;;;;;68.80;39.50;;;;;;;;;;5013612;28;20046;-64
2021/12/19 04:10:54;;;;;;;66.77;39.10;;;;;;;;;;5010111;28;20553;-64
2021/12/19 04:13:21;;;;;;;65.37;38.73;;;;;;;;;;5009063;28;20101;-64
2021/12/19 04:15:51;;;;;;;68.07;37.97;;;;;;;;;;4992670;28;20030;-64
2021/12/19 04:18:17;;;;;;;65.10;39.03;;;;;;;;;;5004484;28;20034;-64
2021/12/19 04:20:43;;;;;;;65.73;39.77;;;;;;;;;;5008449;28;20037;-64
2021/12/19 04:23:09;;;;;;;67.47;41.57;;;;;;;;;;5009392;28;20412;-64
2021/12/19 04:25:35;;;;;;;72.13;38.80;;;;;;;;;;5011334;28;20045;-64
2021/12/19 04:28:01;;;;;;;71.87;40.20;;;;;;;;;;4998181;28;20028;-64
2021/12/19 04:30:27;;;;;;;70.90;41.70;;;;;;;;;;5003891;28;20422;-64
2021/12/19 04:33:01;;;;;;;79.57;40.30;;;;;;;;;;5013269;28;20414;-64
2021/12/19 04:35:31;;;;;;;67.38;39.65;;;;;;;;;;5007516;28;20022;-64
2021/12/19 05:15:29;;;;;;;59.30;33.33;;;;;;;;;;5012245;28;20378;-64
2021/12/19 05:18:01;;;;;;;73.63;39.50;;;;;;;;;;5012663;28;20778;-64
2021/12/19 05:20:29;;;;;;;70.47;38.57;;;;;;;;;;5004986;28;20423;-65
2021/12/19 05:23:02;;;;;;;81.80;40.70;;;;;;;;;;5014905;28;20025;-65
2021/12/19 05:25:28;;;;;;;77.77;41.60;;;;;;;;;;5007722;28;20117;-65
2021/12/19 05:27:55;;;;;;;77.40;41.57;;;;;;;;;;5006804;28;20065;-65
2021/12/19 05:30:22;;;;;;;71.57;36.23;;;;;;;;;;5009669;28;20033;-65
2021/12/19 05:32:49;;;;;;;67.37;37.20;;;;;;;;;;5009993;28;20041;-65
2021/12/19 05:35:21;;;;;;;80.17;35.53;;;;;;;;;;5005240;28;20484;-65
2021/12/19 05:46:01;;;;;;;71.60;36.10;;;;;;;;;;5004112;28;20053;-65
2021/12/19 05:48:27;;;;;;;70.77;34.83;;;;;;;;;;5008937;28;20026;-64
2021/12/19 05:50:53;;;;;;;78.40;39.43;;;;;;;;;;5006952;28;20034;-64
2021/12/19 05:53:19;;;;;;;79.80;41.73;;;;;;;;;;5012621;28;20033;-64
2021/12/19 05:55:45;;;;;;;74.60;39.87;;;;;;;;;;5006811;28;20040;-64
2021/12/19 05:58:11;;;;;;;74.90;38.67;;;;;;;;;;5007359;28;20030;-64
2021/12/19 06:00:37;;;;;;;77.00;38.73;;;;;;;;;;5009104;28;20026;-64
2021/12/19 06:03:04;;;;;;;97.33;42.50;;;;;;;;;;5009232;28;20034;-64
2021/12/19 06:05:30;;;;;;;73.10;38.33;;;;;;;;;;5002084;28;20041;-64
2021/12/19 06:07:56;;;;;;;62.87;37.03;;;;;;;;;;5005932;28;20105;-64
2021/12/19 06:10:22;;;;;;;67.97;35.90;;;;;;;;;;5005771;28;20094;-63
2021/12/19 06:12:49;;;;;;;73.07;36.87;;;;;;;;;;4995667;28;20037;-64
2021/12/19 06:15:15;;;;;;;63.23;34.10;;;;;;;;;;5009251;28;20017;-64
2021/12/19 06:17:44;;;;;;;65.17;34.43;;;;;;;;;;5007639;28;20033;-63
2021/12/19 06:20:10;;;;;;;64.00;34.03;;;;;;;;;;5008390;28;20076;-64
2021/12/19 06:22:36;;;;;;;64.00;33.77;;;;;;;;;;5011904;28;20025;-64
2021/12/19 06:25:03;;;;;;;67.97;36.00;;;;;;;;;;5005751;28;20040;-64
2021/12/19 06:27:29;;;;;;;61.57;34.80;;;;;;;;;;5012330;28;20390;-64
2021/12/19 06:29:55;;;;;;;76.47;35.80;;;;;;;;;;5011411;28;20111;-64
2021/12/19 06:32:21;;;;;;;67.97;34.37;;;;;;;;;;5010888;28;20029;-63
2021/12/19 06:34:47;;;;;;;64.93;34.00;;;;;;;;;;5011266;28;20468;-64
2021/12/19 06:43:21;;;;;;;61.83;33.37;;;;;;;;;;5006091;28;20055;-63
2021/12/19 06:45:47;;;;;;;69.00;34.03;;;;;;;;;;5005044;28;20076;-63
2021/12/19 06:48:13;;;;;;;70.17;34.20;;;;;;;;;;5008730;28;20033;-63
2021/12/19 06:50:40;;;;;;;61.70;33.57;;;;;;;;;;5011904;28;20482;-64
2021/12/19 06:53:06;;;;;;;65.80;35.93;;;;;;;;;;4994097;28;20030;-63
2021/12/19 06:55:32;;;;;;;59.80;34.73;;;;;;;;;;5003987;28;20565;-63
2021/12/19 07:07:09;;;;;;;57.77;34.07;;;;;;;;;;5008718;28;20053;-65
2021/12/19 07:09:35;;;;;;;55.77;34.00;;;;;;;;;;4999577;28;20450;-64
2021/12/19 07:12:02;;;;;;;60.37;34.83;;;;;;;;;;5001749;28;20049;-64
2021/12/19 07:14:28;;;;;;;58.60;33.67;;;;;;;;;;5010883;28;20096;-64
2021/12/19 07:16:54;;;;;;;61.57;35.90;;;;;;;;;;4995673;28;20030;-63
2021/12/19 07:19:20;;;;;;;58.13;33.87;;;;;;;;;;5001253;28;20022;-63
2021/12/19 07:21:46;;;;;;;70.30;37.23;;;;;;;;;;5016285;28;20113;-63
2021/12/19 07:24:12;;;;;;;59.50;35.27;;;;;;;;;;4998241;28;20379;-63
2021/12/19 07:26:38;;;;;;;62.67;36.53;;;;;;;;;;5007553;28;20077;-63
2021/12/19 07:29:04;;;;;;;59.60;36.70;;;;;;;;;;5009391;28;20021;-64
2021/12/19 07:31:34;;;;;;;65.90;39.00;;;;;;;;;;5005132;28;20062;-63
2021/12/19 07:34:00;;;;;;;58.57;35.73;;;;;;;;;;5002431;28;20065;-63
2021/12/19 07:36:35;;;;;;;58.70;33.83;;;;;;;;;;5001632;28;20483;-63
2021/12/19 07:39:07;;;;;;;59.13;35.42;;;;;;;;;;5012648;28;20052;-63
2021/12/19 07:41:33;;;;;;;58.40;35.07;;;;;;;;;;5002591;28;20022;-64
2021/12/19 07:43:59;;;;;;;57.10;33.57;;;;;;;;;;5014820;28;20052;-64
2021/12/19 07:46:25;;;;;;;55.30;33.30;;;;;;;;;;5010817;28;20505;-64
2021/12/19 07:48:51;;;;;;;52.40;33.50;;;;;;;;;;5010813;28;20030;-64
2021/12/19 07:51:17;;;;;;;55.03;33.90;;;;;;;;;;5007510;28;20453;-64
2021/12/19 07:53:43;;;;;;;52.57;33.10;;;;;;;;;;5005048;28;20021;-64
2021/12/19 07:56:09;;;;;;;54.50;35.20;;;;;;;;;;5008825;28;20109;-63
2021/12/19 07:58:35;;;;;;;58.87;34.63;;;;;;;;;;5005278;28;20065;-64
2021/12/19 08:01:01;;;;;;;54.83;35.07;;;;;;;;;;5004320;28;20495;-64
2021/12/19 08:03:27;;;;;;;54.17;33.97;;;;;;;;;;5003744;28;20038;-64
2021/12/19 08:05:54;;;;;;;53.53;32.97;;;;;;;;;;4993441;28;20045;-63
2021/12/19 08:08:26;;;;;;;50.17;31.93;;;;;;;;;;5004806;28;20030;-64
2021/12/19 08:13:37;;;;;;;;;;;;;;;;;;5003534;28;20036;-64
2021/12/19 08:16:03;;;;;;;46.17;30.80;;;;;;;;;;4995097;28;20000;-64
2021/12/19 08:18:29;;;;;;;44.23;30.13;;;;;;;;;;5014289;28;20087;-64
2021/12/19 08:20:55;;;;;;;45.57;31.87;;;;;;;;;;5011535;28;20046;-64
2021/12/19 08:23:21;;;;;;;51.93;32.57;;;;;;;;;;5003260;28;20064;-64
2021/12/19 08:25:47;;;;;;;51.73;30.80;;;;;;;;;;5013248;28;20070;-64
2021/12/19 08:28:13;;;;;;;48.40;32.53;;;;;;;;;;5008148;28;20406;-64
2021/12/19 08:30:39;;;;;;;46.50;31.70;;;;;;;;;;5019114;28;20034;-64
2021/12/19 08:33:05;;;;;;;46.77;31.47;;;;;;;;;;5011151;28;20074;-64
2021/12/19 08:35:31;;;;;;;44.67;30.70;;;;;;;;;;5016161;28;20037;-64
2021/12/19 08:37:57;;;;;;;45.67;30.87;;;;;;;;;;5005909;28;20026;-64
2021/12/19 08:40:24;;;;;;;43.23;30.13;;;;;;;;;;5008387;28;20030;-64
2021/12/19 08:42:51;;;;;;;44.87;30.30;;;;;;;;;;5011997;28;20046;-64
2021/12/19 08:45:17;;;;;;;47.13;31.53;;;;;;;;;;5012705;28;20125;-64
2021/12/19 08:47:43;;;;;;;39.90;30.20;;;;;;;;;;5009600;28;20065;-64
2021/12/19 08:50:09;;;;;;;48.07;31.83;;;;;;;;;;5010438;28;20030;-64
2021/12/19 08:52:36;;;;;;;48.50;32.63;;;;;;;;;;5012510;28;20104;-64
2021/12/19 08:55:03;;;;;;;46.93;30.87;;;;;;;;;;5008717;28;20170;-64
2021/12/19 08:57:29;;;;;;;44.87;30.60;;;;;;;;;;5013524;28;20053;-64
2021/12/19 08:59:55;;;;;;;43.23;30.63;;;;;;;;;;5005409;28;20061;-64
2021/12/19 09:02:21;;;;;;;45.07;31.40;;;;;;;;;;5012215;28;21055;-64
2021/12/19 09:04:48;;;;;;;45.67;30.80;;;;;;;;;;5004977;28;20032;-64
2021/12/19 09:07:14;;;;;;;45.67;29.77;;;;;;;;;;5010534;28;20097;-64
2021/12/19 09:09:40;;;;;;;48.93;32.63;;;;;;;;;;4989736;28;20030;-64
2021/12/19 09:12:06;;;;;;;48.13;31.57;;;;;;;;;;5007980;28;20057;-64
2021/12/19 09:14:32;;;;;;;43.83;31.27;;;;;;;;;;5005677;28;20034;-65
2021/12/19 09:17:01;;;;;;;45.30;30.60;;;;;;;;;;5007197;28;20044;-65
2021/12/19 09:19:27;;;;;;;42.30;30.47;;;;;;;;;;5010111;28;20068;-63
2021/12/19 09:21:53;;;;;;;42.43;30.03;;;;;;;;;;5008363;28;20025;-64
2021/12/19 09:24:19;;;;;;;43.20;29.97;;;;;;;;;;5006983;28;20541;-64
2021/12/19 09:26:45;;;;;;;42.33;29.33;;;;;;;;;;5006065;28;20048;-64
2021/12/19 09:29:11;;;;;;;43.93;30.07;;;;;;;;;;5008220;28;20481;-63
2021/12/19 09:31:37;;;;;;;39.60;28.53;;;;;;;;;;5005718;28;20048;-63
2021/12/19 09:34:06;;;;;;;39.27;27.73;;;;;;;;;;5007310;28;20026;-64
2021/12/19 09:36:32;;;;;;;40.30;27.90;;;;;;;;;;5008371;28;20053;-64
2021/12/19 09:38:58;;;;;;;38.40;27.90;;;;;;;;;;5002973;28;20061;-63
2021/12/19 09:41:29;;;;;;;40.57;28.43;;;;;;;;;;5005625;28;20045;-64
2021/12/19 09:44:02;;;;;;;40.70;27.87;;;;;;;;;;5001345;28;20092;-64
2021/12/19 09:46:29;;;;;;;39.03;28.70;;;;;;;;;;5009215;28;20479;-64
2021/12/19 09:48:55;;;;;;;35.63;28.07;;;;;;;;;;5005299;28;20118;-64
2021/12/19 09:51:21;;;;;;;37.53;27.27;;;;;;;;;;5005361;28;20030;-64
2021/12/19 09:53:47;;;;;;;40.37;29.17;;;;;;;;;;5011990;28;20033;-64
2021/12/19 09:56:14;;;;;;;39.03;28.30;;;;;;;;;;5007715;28;20396;-63
2021/12/19 09:58:40;;;;;;;38.53;28.67;;;;;;;;;;5010343;28;20030;-64
2021/12/19 10:01:08;;;;;;;38.73;29.23;;;;;;;;;;5009832;28;20392;-63
2021/12/19 10:03:38;;;;;;;38.37;29.07;;;;;;;;;;5010932;28;20069;-64
2021/12/19 10:06:22;;;;;;;38.93;28.73;;;;;;;;;;5012190;28;20057;-64
2021/12/19 10:14:28;;;;;;;39.33;28.60;;;;;;;;;;5013079;28;20029;-64
2021/12/19 10:16:55;;;;;;;40.87;30.60;;;;;;;;;;5007138;28;20026;-64
2021/12/19 10:19:21;;;;;;;40.30;30.00;;;;;;;;;;5008503;28;20109;-64
2021/12/19 10:21:47;;;;;;;43.23;30.57;;;;;;;;;;5012330;28;20030;-64
2021/12/19 10:24:29;;;;;;;41.37;30.53;;;;;;;;;;5003932;28;20395;-64
2021/12/19 10:26:55;;;;;;;43.40;31.03;;;;;;;;;;5008907;28;20115;-64
2021/12/19 10:29:41;;;;;;;42.23;30.07;;;;;;;;;;5010029;28;20026;-64
2021/12/19 10:32:07;;;;;;;39.97;29.13;;;;;;;;;;5008009;28;20100;-64
2021/12/19 10:34:33;;;;;;;42.03;30.13;;;;;;;;;;5009794;28;20038;-64
2021/12/19 10:36:59;;;;;;;39.80;29.20;;;;;;;;;;5007246;28;20030;-64
2021/12/19 10:39:34;;;;;;;42.60;29.67;;;;;;;;;;5006507;28;20053;-64
2021/12/19 10:42:01;;;;;;;43.63;29.93;;;;;;;;;;5000509;28;20432;-64
2021/12/19 10:47:20;;;;;;;39.20;29.00;;;;;;;;;;5009258;28;20067;-64
2021/12/19 10:49:46;;;;;;;44.23;30.57;;;;;;;;;;5009313;28;20029;-64
2021/12/19 10:52:13;;;;;;;40.87;31.07;;;;;;;;;;5007682;28;20033;-64
2021/12/19 10:54:56;;;;;;;40.13;29.87;;;;;;;;;;4994528;28;20116;-63
2021/12/19 10:57:30;;;;;;;41.23;30.57;;;;;;;;;;5009755;28;20032;-63
2021/12/19 10:59:56;;;;;;;43.70;31.27;;;;;;;;;;5004433;28;20030;-63
2021/12/19 11:02:35;;;;;;;48.30;33.37;;;;;;;;;;5009016;28;20105;-63
2021/12/19 11:05:01;;;;;;;47.60;34.27;;;;;;;;;;4997557;28;20105;-63
2021/12/19 11:07:27;;;;;;;46.80;33.47;;;;;;;;;;5008572;28;20030;-63
2021/12/19 11:09:53;;;;;;;49.27;35.67;;;;;;;;;;5000756;28;20053;-63
2021/12/19 11:12:19;;;;;;;49.60;35.30;;;;;;;;;;5003088;28;20587;-63
2021/12/19 11:14:51;;;;;;;50.17;36.47;;;;;;;;;;5001484;28;20047;-63
2021/12/19 11:17:20;;;;;;;53.87;37.47;;;;;;;;;;5007488;28;20034;-63
2021/12/19 11:19:46;;;;;;;48.43;35.00;;;;;;;;;;5008727;28;20097;-63
2021/12/19 11:22:13;;;;;;;50.90;35.97;;;;;;;;;;5013112;28;20026;-62
2021/12/19 11:24:39;;;;;;;55.80;36.00;;;;;;;;;;5010734;28;20513;-63
2021/12/19 11:27:06;;;;;;;51.43;37.00;;;;;;;;;;5007083;28;20038;-63
2021/12/19 11:29:33;;;;;;;52.03;37.00;;;;;;;;;;5004937;28;20185;-63
2021/12/19 11:32:01;;;;;;;52.80;38.53;;;;;;;;;;5003219;28;20484;-63
2021/12/19 11:34:39;;;;;;;47.53;33.33;;;;;;;;;;5006786;28;20387;-63
2021/12/19 11:37:05;;;;;;;50.23;36.57;;;;;;;;;;5003383;28;20034;-63
2021/12/19 11:39:33;;;;;;;52.57;37.17;;;;;;;;;;5004175;28;20034;-63
2021/12/19 11:42:05;;;;;;;55.03;36.87;;;;;;;;;;5002275;28;20041;-63
2021/12/19 11:44:46;;;;;;;53.53;37.27;;;;;;;;;;5005495;28;20026;-63
2021/12/19 11:56:22;;;;;;;48.80;33.27;;;;;;;;;;5002282;28;20033;-64
2021/12/19 11:58:52;;;;;;;48.97;36.07;;;;;;;;;;5003912;28;20021;-63
2021/12/19 12:01:33;;;;;;;46.10;33.23;;;;;;;;;;5011517;28;20022;-63
2021/12/19 12:03:59;;;;;;;45.87;33.47;;;;;;;;;;5007450;28;20554;-63
2021/12/19 12:06:31;;;;;;;43.20;32.47;;;;;;;;;;5007546;28;20530;-63
2021/12/19 12:09:12;;;;;;;47.13;32.73;;;;;;;;;;5008420;28;20120;-63
2021/12/19 12:11:40;;;;;;;45.00;31.87;;;;;;;;;;5009591;28;20076;-63
2021/12/19 12:14:30;;;;;;;43.03;31.53;;;;;;;;;;5006081;28;20046;-63
2021/12/19 12:17:07;;;;;;;49.20;33.13;;;;;;;;;;5005975;28;20076;-63
2021/12/19 12:19:41;;;;;;;48.77;32.57;;;;;;;;;;5005065;28;20087;-63
2021/12/19 12:22:29;;;;;;;46.33;32.72;;;;;;;;;;5005910;28;20029;-63
2021/12/19 12:25:04;;;;;;;45.20;33.03;;;;;;;;;;5008760;28;20025;-63
2021/12/19 12:27:38;;;;;;;48.90;35.63;;;;;;;;;;5005441;28;20042;-64
2021/12/19 12:30:06;;;;;;;45.47;32.20;;;;;;;;;;4990680;28;20032;-64
2021/12/19 12:32:32;;;;;;;44.80;31.80;;;;;;;;;;5007818;28;20293;-63
2021/12/19 12:34:58;;;;;;;49.23;31.63;;;;;;;;;;5007360;28;20014;-63
2021/12/19 12:37:24;;;;;;;44.83;30.13;;;;;;;;;;5006411;28;20025;-64
2021/12/19 12:40:15;;;;;;;48.47;33.60;;;;;;;;;;5008335;28;20026;-63
2021/12/19 12:42:58;;;;;;;45.87;32.30;;;;;;;;;;5010167;28;20026;-63
2021/12/19 12:45:28;;;;;;;47.30;32.07;;;;;;;;;;5007813;28;20038;-63
2021/12/19 12:47:54;;;;;;;42.80;32.67;;;;;;;;;;5008635;28;20113;-64
2021/12/19 12:50:20;;;;;;;45.97;32.03;;;;;;;;;;5009091;28;20022;-64
2021/12/19 12:52:46;;;;;;;45.27;32.27;;;;;;;;;;5009033;28;20030;-64
2021/12/19 12:55:17;;;;;;;47.83;32.33;;;;;;;;;;5005844;28;20491;-64
2021/12/19 12:57:44;;;;;;;44.40;33.70;;;;;;;;;;5012640;28;20399;-64
2021/12/19 13:00:21;;;;;;;47.27;33.27;;;;;;;;;;5011314;28;20120;-64
2021/12/19 13:02:55;;;;;;;46.27;32.67;;;;;;;;;;5007158;28;20026;-64
2021/12/19 13:05:21;;;;;;;52.15;33.45;;;;;;;;;;5006494;28;20129;-64
2021/12/19 13:07:47;;;;;;;49.50;34.63;;;;;;;;;;5004497;28;20487;-64
2021/12/19 13:10:13;;;;;;;45.30;33.10;;;;;;;;;;5005420;28;20037;-64
2021/12/19 13:12:45;;;;;;;47.87;33.33;;;;;;;;;;5005985;28;20046;-63
2021/12/19 13:15:13;;;;;;;46.70;33.80;;;;;;;;;;5005327;28;20018;-64
2021/12/19 13:17:39;;;;;;;46.80;32.53;;;;;;;;;;5007435;28;20084;-63
2021/12/19 13:20:10;;;;;;;49.83;34.23;;;;;;;;;;5001578;28;20029;-64
2021/12/19 13:22:38;;;;;;;46.57;32.97;;;;;;;;;;5005889;28;20038;-64
2021/12/19 13:25:13;;;;;;;48.27;33.10;;;;;;;;;;5006437;28;20030;-63
2021/12/19 13:27:40;;;;;;;46.38;33.03;;;;;;;;;;5009681;28;20026;-63
2021/12/19 13:30:06;;;;;;;47.03;32.00;;;;;;;;;;5009254;28;20723;-63
2021/12/19 13:32:34;;;;;;;46.67;32.63;;;;;;;;;;5009037;28;20033;-63
2021/12/19 13:35:01;;;;;;;51.13;32.73;;;;;;;;;;5009824;28;20483;-63
2021/12/19 13:37:31;;;;;;;42.90;30.40;;;;;;;;;;5008180;28;20029;-63
2021/12/19 13:40:06;;;;;;;45.03;29.80;;;;;;;;;;5012679;28;20062;-63
2021/12/19 13:42:49;;;;;;;42.55;28.58;;;;;;;;;;5015386;28;20037;-63
2021/12/19 13:45:21;;;;;;;45.33;30.27;;;;;;;;;;5009983;28;20026;-63
2021/12/19 13:47:47;;;;;;;46.83;30.70;;;;;;;;;;5006152;28;20431;-63
2021/12/19 13:50:14;;;;;;;45.97;31.00;;;;;;;;;;5010322;28;20025;-62
2021/12/19 13:52:40;;;;;;;45.00;32.77;;;;;;;;;;5003087;28;20018;-63
2021/12/19 13:55:06;;;;;;;45.03;29.53;;;;;;;;;;5013062;28;20041;-62
2021/12/19 13:57:32;;;;;;;46.43;30.27;;;;;;;;;;5006447;28;20209;-61
2021/12/19 13:59:58;;;;;;;52.70;33.07;;;;;;;;;;5010334;28;20109;-62
2021/12/19 14:02:24;;;;;;;47.00;32.30;;;;;;;;;;5010776;28;20456;-62
2021/12/19 14:04:50;;;;;;;51.80;34.47;;;;;;;;;;5007704;28;20027;-61
2021/12/19 14:07:17;;;;;;;50.47;33.20;;;;;;;;;;5004119;28;20570;-61
2021/12/19 14:09:45;;;;;;;50.27;32.70;;;;;;;;;;5010486;28;20030;-61
2021/12/19 14:12:23;;;;;;;51.77;31.70;;;;;;;;;;5005380;28;20042;-61
2021/12/19 14:14:50;;;;;;;63.80;38.87;;;;;;;;;;5006402;28;20488;-61
2021/12/19 14:17:16;;;;;;;59.53;38.83;;;;;;;;;;5007337;28;20038;-62
2021/12/19 14:19:43;;;;;;;63.77;39.07;;;;;;;;;;5004724;28;20035;-62
2021/12/19 14:22:11;;;;;;;58.80;37.03;;;;;;;;;;5003111;28;20379;-62
2021/12/19 14:24:42;;;;;;;48.57;33.03;;;;;;;;;;5007344;28;20483;-62
2021/12/19 14:27:41;;;;;;;45.67;29.50;;;;;;;;;;5006680;28;20117;-61
2021/12/19 14:30:13;;;;;;;45.07;29.47;;;;;;;;;;5009130;28;20069;-62
2021/12/19 14:32:47;;;;;;;53.73;34.77;;;;;;;;;;5004282;28;20026;-62
2021/12/19 14:35:13;;;;;;;63.13;38.25;;;;;;;;;;5006066;28;20037;-62
2021/12/19 14:37:40;;;;;;;56.47;32.77;;;;;;;;;;5006103;28;20096;-62
2021/12/19 14:40:06;;;;;;;48.37;31.47;;;;;;;;;;5004625;28;20096;-62
2021/12/19 14:42:37;;;;;;;69.43;40.53;;;;;;;;;;5007231;28;20029;-61
2021/12/19 14:45:05;;;;;;;56.30;35.13;;;;;;;;;;5005261;28;20022;-62
2021/12/19 14:47:36;;;;;;;62.43;36.73;;;;;;;;;;5004301;28;20049;-62
2021/12/19 14:50:12;;;;;;;52.33;34.13;;;;;;;;;;4993903;28;20084;-62
2021/12/19 14:52:38;;;;;;;61.93;37.60;;;;;;;;;;4995773;28;20021;-61
2021/12/19 14:55:09;;;;;;;64.93;38.53;;;;;;;;;;4988220;28;20030;-62
2021/12/19 14:57:35;;;;;;;60.97;37.67;;;;;;;;;;4991805;28;20176;-62
2021/12/19 15:00:06;;;;;;;56.10;34.27;;;;;;;;;;4995248;28;20495;-61
2021/12/19 15:02:32;;;;;;;49.03;31.93;;;;;;;;;;4995836;28;20034;-61
2021/12/19 15:04:58;;;;;;;48.53;31.80;;;;;;;;;;4998163;28;20111;-60
2021/12/19 15:07:26;;;;;;;48.63;30.60;;;;;;;;;;5000070;28;20043;-61
2021/12/19 15:09:52;;;;;;;48.50;30.87;;;;;;;;;;4994515;28;20377;-62
2021/12/19 15:12:18;;;;;;;47.73;30.97;;;;;;;;;;4978443;28;20054;-62
2021/12/19 15:14:44;;;;;;;45.97;29.57;;;;;;;;;;4967127;28;20050;-62
2021/12/19 15:17:10;;;;;;;48.27;29.70;;;;;;;;;;4951056;28;20034;-62
2021/12/19 15:19:37;;;;;;;48.70;31.17;;;;;;;;;;4962482;28;20027;-62
2021/12/19 15:22:03;;;;;;;45.93;30.07;;;;;;;;;;4958591;28;20152;-62
2021/12/19 15:24:29;;;;;;;49.67;30.53;;;;;;;;;;4964304;28;20030;-62
2021/12/19 15:26:55;;;;;;;48.00;31.57;;;;;;;;;;4973248;28;20397;-62
2021/12/19 15:29:21;;;;;;;46.67;31.37;;;;;;;;;;4967645;28;20027;-62
2021/12/19 15:31:50;;;;;;;50.53;30.77;;;;;;;;;;4958458;28;20035;-62
2021/12/19 15:34:16;;;;;;;51.47;30.57;;;;;;;;;;4960629;28;20034;-62
2021/12/19 15:36:42;;;;;;;51.10;31.57;;;;;;;;;;4960269;28;20106;-62
2021/12/19 15:39:08;;;;;;;49.10;31.43;;;;;;;;;;4963571;28;20065;-61
2021/12/19 15:41:35;;;;;;;46.40;31.43;;;;;;;;;;4959084;28;20385;-61
2021/12/19 15:44:01;;;;;;;49.20;31.43;;;;;;;;;;4959137;28;20115;-61
2021/12/19 15:46:27;;;;;;;48.03;30.23;;;;;;;;;;4964997;28;20366;-61
2021/12/19 15:48:54;;;;;;;57.07;32.63;;;;;;;;;;4974459;28;21289;-61
2021/12/19 15:51:20;;;;;;;54.27;31.40;;;;;;;;;;4976869;28;20027;-61
2021/12/19 15:53:49;;;;;;;50.20;31.30;;;;;;;;;;4960252;28;20407;-61
2021/12/19 15:56:16;;;;;;;52.33;30.03;;;;;;;;;;4961451;28;20027;-61
2021/12/19 15:58:42;;;;;;;50.50;32.07;;;;;;;;;;4959268;28;20019;-61
2021/12/19 16:01:10;;;;;;;49.20;30.57;;;;;;;;;;4963634;28;20039;-61
2021/12/19 16:03:36;;;;;;;47.97;29.83;;;;;;;;;;4973534;28;20114;-61
2021/12/19 16:06:02;;;;;;;47.40;30.03;;;;;;;;;;4963865;28;20038;-62
2021/12/19 16:08:28;;;;;;;48.00;30.43;;;;;;;;;;4950875;28;20114;-61
2021/12/19 16:10:54;;;;;;;52.67;31.43;;;;;;;;;;4957254;28;20111;-62
2021/12/19 16:13:20;;;;;;;50.80;30.47;;;;;;;;;;4988016;28;20150;-61
2021/12/19 16:15:47;;;;;;;46.77;30.17;;;;;;;;;;4994268;28;20585;-61
2021/12/19 16:18:13;;;;;;;50.33;30.13;;;;;;;;;;4988925;28;20120;-61